createdAt,value
2023-03-11T00:01:34.016Z,84.70
2023-03-11T00:04:02.177Z,85.94
2023-03-11T00:06:30.569Z,86.29
2023-03-11T00:09:00.973Z,86.03
2023-03-11T00:11:29.189Z,86.71
2023-03-11T00:13:59.418Z,87.50
2023-03-11T00:16:29.238Z,87.22
2023-03-11T00:18:58.130Z,86.51
2023-03-11T00:21:26.264Z,87.08
2023-03-11T00:23:54.453Z,86.88
2023-03-11T00:26:22.659Z,87.41
2023-03-11T00:28:50.793Z,87.86
2023-03-11T00:31:19.241Z,87.23
2023-03-11T00:33:51.010Z,87.49
2023-03-11T00:36:25.035Z,87.76
2023-03-11T00:38:53.411Z,88.80
2023-03-11T00:41:21.706Z,87.92
2023-03-11T00:43:49.972Z,89.65
2023-03-11T00:46:18.424Z,89.49
2023-03-11T00:48:51.545Z,90.53
2023-03-11T00:51:22.045Z,90.38
2023-03-11T00:53:53.705Z,91.26
2023-03-11T00:56:22.359Z,92.30
2023-03-11T00:58:53.626Z,92.37
2023-03-11T01:01:26.091Z,92.55
2023-03-11T01:03:55.589Z,92.96
2023-03-11T01:06:35.790Z,93.11
2023-03-11T01:09:07.605Z,93.10
2023-03-11T01:11:38.394Z,93.19
2023-03-11T01:14:10.719Z,92.69
2023-03-11T01:19:29.003Z,91.63
2023-03-11T01:21:57.186Z,91.88
2023-03-11T01:24:25.327Z,93.15
2023-03-11T01:26:56.111Z,93.29
2023-03-11T01:29:26.398Z,93.97
2023-03-11T01:31:55.203Z,94.59
2023-03-11T01:34:29.462Z,95.28
2023-03-11T01:37:02.075Z,96.32
2023-03-11T01:39:32.777Z,95.68
2023-03-11T01:42:01.115Z,96.76
2023-03-11T01:44:29.564Z,97.39
2023-03-11T01:47:33.845Z,97.76
2023-03-11T01:50:06.169Z,96.91
2023-03-11T01:52:34.966Z,96.34
2023-03-11T01:55:03.235Z,95.50
2023-03-11T01:57:34.754Z,95.52
2023-03-11T02:00:09.012Z,94.97
2023-03-11T02:02:46.859Z,95.21
2023-03-11T02:05:18.016Z,94.11
2023-03-11T02:07:46.540Z,93.78
2023-03-11T02:10:18.181Z,93.98
2023-03-11T02:12:51.361Z,93.10
2023-03-11T02:15:29.301Z,94.36
2023-03-11T02:17:59.617Z,94.35
2023-03-11T02:20:39.998Z,95.58
2023-03-11T02:23:14.909Z,95.17
2023-03-11T02:25:53.513Z,96.97
2023-03-11T02:28:28.507Z,96.63
2023-03-11T02:30:58.157Z,96.35
2023-03-11T02:33:33.423Z,96.90
2023-03-11T02:38:40.013Z,97.88
2023-03-11T02:41:11.388Z,97.48
2023-03-11T02:43:45.835Z,97.83
2023-03-11T02:46:20.168Z,98.16
2023-03-11T02:48:49.760Z,97.55
2023-03-11T02:51:20.480Z,98.04
2023-03-11T02:53:54.131Z,97.01
2023-03-11T02:56:24.664Z,98.10
2023-03-11T02:58:54.129Z,97.91
2023-03-11T03:01:22.456Z,98.35
2023-03-11T03:03:52.008Z,97.40
2023-03-11T03:06:20.312Z,97.57
2023-03-11T03:08:53.927Z,98.08
2023-03-11T03:11:22.265Z,99.24
2023-03-11T03:13:50.942Z,98.91
2023-03-11T03:16:19.381Z,99.78
2023-03-11T03:18:49.314Z,100.00
2023-03-11T03:21:17.565Z,100.00
2023-03-11T03:23:51.159Z,100.00
2023-03-11T03:26:20.589Z,100.00
2023-03-11T03:29:07.216Z,100.00
2023-03-11T03:31:35.593Z,100.00
2023-03-11T03:34:06.286Z,100.00
2023-03-11T03:36:34.523Z,100.00
2023-03-11T03:39:05.941Z,100.00
2023-03-11T03:41:38.846Z,100.00
2023-03-11T03:44:09.077Z,100.00
2023-03-11T03:46:38.574Z,100.00
2023-03-11T03:49:09.318Z,100.00
2023-03-11T03:51:40.530Z,100.00
2023-03-11T03:54:23.765Z,100.00
2023-03-11T03:56:53.184Z,100.00
2023-03-11T03:59:22.425Z,100.00
2023-03-11T04:01:56.044Z,100.00
2023-03-11T04:04:25.546Z,100.00
2023-03-11T04:09:44.656Z,100.00
2023-03-11T04:12:18.054Z,100.00
2023-03-11T04:14:47.451Z,100.00
2023-03-11T04:17:20.854Z,100.00
2023-03-11T04:19:50.498Z,100.00
2023-03-11T04:22:18.616Z,100.00
2023-03-11T04:24:49.787Z,100.00
2023-03-11T04:27:20.218Z,100.00
2023-03-11T04:29:48.852Z,100.00
2023-03-11T04:32:20.412Z,100.00
2023-03-11T04:34:53.307Z,100.00
2023-03-11T04:37:23.860Z,100.00
2023-03-11T04:39:53.335Z,100.00
2023-03-11T04:42:23.679Z,100.00
2023-03-11T04:44:55.082Z,100.00
2023-03-11T04:47:25.614Z,100.00
2023-03-11T04:49:56.288Z,100.00
2023-03-11T04:52:25.254Z,100.00
2023-03-11T04:54:54.340Z,100.00
2023-03-11T04:57:26.440Z,100.00
2023-03-11T04:59:58.543Z,100.00
2023-03-11T05:02:30.627Z,100.00
2023-03-11T05:05:01.653Z,100.00
2023-03-11T05:07:30.319Z,100.00
2023-03-11T05:09:58.597Z,100.00
2023-03-11T05:12:30.653Z,100.00
2023-03-11T05:14:59.712Z,100.00
2023-03-11T05:17:30.332Z,100.00
2023-03-11T05:19:59.332Z,100.00
2023-03-11T05:22:32.900Z,100.00
2023-03-11T05:25:01.839Z,100.00
2023-03-11T05:27:34.187Z,100.00
2023-03-11T05:30:06.550Z,100.00
2023-03-11T05:32:38.475Z,100.00
2023-03-11T05:35:10.731Z,100.00
2023-03-11T05:37:39.696Z,100.00
2023-03-11T05:40:11.175Z,100.00
2023-03-11T05:42:42.169Z,100.00
2023-03-11T05:45:12.976Z,100.00
2023-03-11T05:47:45.285Z,100.00
2023-03-11T05:50:18.132Z,100.00
2023-03-11T05:52:50.144Z,100.00
2023-03-11T05:55:18.815Z,100.00
2023-03-11T05:57:52.267Z,100.00
2023-03-11T06:00:24.095Z,100.00
2023-03-11T06:02:54.897Z,100.00
2023-03-11T06:05:23.279Z,100.00
2023-03-11T06:07:58.501Z,100.00
2023-03-11T06:10:26.852Z,100.00
2023-03-11T06:12:56.678Z,100.00
2023-03-11T06:15:34.164Z,100.00
2023-03-11T06:18:02.416Z,100.00
2023-03-11T06:20:30.664Z,100.00
2023-03-11T06:22:58.893Z,100.00
2023-03-11T06:25:27.555Z,100.00
2023-03-11T06:27:59.521Z,100.00
2023-03-11T06:30:30.234Z,100.00
2023-03-11T06:33:11.846Z,100.00
2023-03-11T06:35:42.510Z,100.00
2023-03-11T06:38:13.196Z,100.00
2023-03-11T06:40:41.581Z,100.00
2023-03-11T06:43:13.726Z,100.00
2023-03-11T06:45:46.386Z,100.00
2023-03-11T06:48:19.641Z,100.00
2023-03-11T06:50:54.942Z,100.00
2023-03-11T06:53:29.820Z,100.00
2023-03-11T06:56:00.569Z,100.00
2023-03-11T06:58:31.371Z,99.95
2023-03-11T07:01:02.938Z,96.21
2023-03-11T07:03:32.207Z,92.23
2023-03-11T07:06:00.713Z,90.55
2023-03-11T07:08:30.659Z,87.41
2023-03-11T07:11:02.722Z,85.21
2023-03-11T07:13:34.088Z,83.41
2023-03-11T07:16:05.048Z,79.99
2023-03-11T07:18:33.666Z,79.35
2023-03-11T07:21:06.231Z,76.59
2023-03-11T07:23:37.211Z,72.22
2023-03-11T07:26:05.579Z,70.94
2023-03-11T07:28:35.288Z,67.75
2023-03-11T07:31:10.847Z,66.21
2023-03-11T07:33:39.400Z,67.66
2023-03-11T07:39:41.195Z,62.00
2023-03-11T07:42:09.616Z,61.27
2023-03-11T07:44:38.528Z,59.50
2023-03-11T07:47:07.114Z,56.93
2023-03-11T07:49:42.267Z,53.97
2023-03-11T07:52:10.378Z,54.68
2023-03-11T07:54:42.940Z,52.23
2023-03-11T07:57:17.031Z,52.97
2023-03-11T07:59:45.555Z,52.27
2023-03-11T08:02:13.690Z,50.36
2023-03-11T08:04:42.353Z,50.90
2023-03-11T08:07:10.919Z,50.01
2023-03-11T08:09:39.051Z,48.49
2023-03-11T08:12:09.925Z,47.79
2023-03-11T08:14:40.467Z,48.48
2023-03-11T08:17:08.542Z,47.31
2023-03-11T08:19:37.148Z,47.82
2023-03-11T08:22:06.258Z,45.93
2023-03-11T08:24:34.680Z,45.43
2023-03-11T08:27:06.124Z,43.57
2023-03-11T08:29:37.618Z,42.61
2023-03-11T08:32:07.187Z,43.74
2023-03-11T08:34:35.749Z,41.01
2023-03-11T08:37:04.456Z,41.90
2023-03-11T08:39:32.972Z,42.38
2023-03-11T08:42:04.053Z,42.20
2023-03-11T08:44:32.604Z,40.67
2023-03-11T08:47:02.547Z,37.98
2023-03-11T08:49:31.035Z,37.01
2023-03-11T08:52:03.623Z,37.33
2023-03-11T08:54:32.937Z,36.49
2023-03-11T08:57:05.015Z,38.84
2023-03-11T08:59:37.713Z,37.99
2023-03-11T09:02:11.514Z,37.11
2023-03-11T09:04:39.579Z,37.01
2023-03-11T09:07:08.192Z,36.08
2023-03-11T09:09:36.352Z,35.62
2023-03-11T09:12:05.254Z,35.29
2023-03-11T09:14:33.919Z,35.93
2023-03-11T09:17:02.097Z,34.49
2023-03-11T09:19:32.292Z,33.83
2023-03-11T09:22:01.476Z,36.68
2023-03-11T09:24:34.487Z,40.17
2023-03-11T09:27:05.359Z,38.06
2023-03-11T09:29:36.241Z,36.03
2023-03-11T09:32:04.982Z,33.55
2023-03-11T09:34:34.563Z,32.41
2023-03-11T09:37:05.329Z,32.57
2023-03-11T09:39:33.978Z,30.98
2023-03-11T09:42:08.010Z,31.39
2023-03-11T09:44:42.578Z,35.05
2023-03-11T09:47:40.005Z,34.17
2023-03-11T09:50:24.444Z,31.29
2023-03-11T09:53:05.422Z,31.28
2023-03-11T09:55:40.024Z,31.69
2023-03-11T09:58:15.910Z,30.74
2023-03-11T10:00:44.573Z,31.58
2023-03-11T10:03:28.475Z,33.75
2023-03-11T10:06:07.507Z,35.82
2023-03-11T10:08:41.820Z,34.45
2023-03-11T10:11:21.553Z,33.35
2023-03-11T10:14:03.164Z,32.28
2023-03-11T10:16:38.653Z,35.20
2023-03-11T10:19:18.029Z,35.99
2023-03-11T10:21:55.662Z,37.79
2023-03-11T10:24:46.102Z,39.22
2023-03-11T10:27:19.382Z,40.38
2023-03-11T10:30:00.146Z,42.06
2023-03-11T10:32:39.120Z,38.23
2023-03-11T10:35:19.561Z,36.02
2023-03-11T10:37:54.546Z,38.05
2023-03-11T10:40:33.308Z,39.31
2023-03-11T10:43:04.582Z,41.38
2023-03-11T10:45:41.690Z,42.07
2023-03-11T10:48:11.988Z,42.56
2023-03-11T10:50:56.027Z,42.48
2023-03-11T10:53:25.412Z,41.55
2023-03-11T10:55:59.415Z,40.55
2023-03-11T10:58:32.022Z,36.63
2023-03-11T11:01:03.383Z,32.69
2023-03-11T11:03:37.059Z,31.50
2023-03-11T11:06:08.896Z,32.96
2023-03-11T11:08:38.831Z,34.08
2023-03-11T11:11:22.755Z,37.23
2023-03-11T11:13:59.157Z,39.97
2023-03-11T11:16:28.416Z,40.79
2023-03-11T11:19:05.525Z,42.21
2023-03-11T11:21:37.242Z,42.17
2023-03-11T11:24:18.479Z,43.92
2023-03-11T11:27:04.921Z,42.99
2023-03-11T11:29:36.410Z,43.94
2023-03-11T11:32:20.591Z,42.45
2023-03-11T11:35:00.151Z,40.71
2023-03-11T11:37:32.836Z,36.17
2023-03-11T11:40:11.471Z,33.22
2023-03-11T11:42:41.517Z,31.23
2023-03-11T11:45:16.911Z,31.42
2023-03-11T11:47:49.885Z,28.99
2023-03-11T11:50:30.083Z,27.77
2023-03-11T11:53:07.307Z,30.75
2023-03-11T11:55:41.094Z,32.63
2023-03-11T11:58:12.604Z,36.63
2023-03-11T12:00:51.109Z,37.83
2023-03-11T12:03:41.961Z,38.72
2023-03-11T12:06:20.909Z,40.82
2023-03-11T12:09:05.999Z,40.52
2023-03-11T12:12:02.874Z,40.62
2023-03-11T12:15:02.297Z,41.38
2023-03-11T12:17:32.920Z,40.77
2023-03-11T12:20:08.753Z,41.40
2023-03-11T12:22:55.936Z,40.99
2023-03-11T12:25:35.443Z,41.39
2023-03-11T12:28:17.086Z,40.91
2023-03-11T12:30:50.485Z,40.78
2023-03-11T12:33:20.053Z,41.91
2023-03-11T12:35:56.296Z,39.80
2023-03-11T12:40:49.102Z,40.81
2023-03-11T12:43:30.490Z,40.63
2023-03-11T12:46:02.755Z,40.73
2023-03-11T12:48:37.227Z,39.43
2023-03-11T12:51:06.326Z,39.47
2023-03-11T12:53:46.179Z,40.94
2023-03-11T12:56:35.438Z,38.97
2023-03-11T12:59:24.656Z,37.72
2023-03-11T13:02:14.461Z,39.23
2023-03-11T13:04:57.336Z,38.05
2023-03-11T13:07:41.341Z,38.51
2023-03-11T13:10:21.486Z,39.36
2023-03-11T13:12:53.067Z,40.72
2023-03-11T13:15:45.796Z,40.27
2023-03-11T13:18:25.115Z,40.54
2023-03-11T13:20:58.324Z,41.78
2023-03-11T13:23:29.621Z,42.57
2023-03-11T13:26:24.793Z,41.92
2023-03-11T13:29:30.218Z,42.26
2023-03-11T13:32:14.645Z,41.90
2023-03-11T13:34:52.379Z,41.57
2023-03-11T13:37:31.426Z,40.87
2023-03-11T13:40:14.302Z,41.01
2023-03-11T13:42:47.509Z,41.81
2023-03-11T13:45:28.956Z,41.92
2023-03-11T13:48:01.035Z,42.41
2023-03-11T13:50:36.710Z,42.82
2023-03-11T13:53:10.254Z,43.04
2023-03-11T13:55:43.016Z,44.56
2023-03-11T13:58:21.180Z,44.36
2023-03-11T14:00:55.430Z,45.12
2023-03-11T14:03:25.596Z,45.15
2023-03-11T14:05:59.605Z,45.30
2023-03-11T14:08:29.603Z,46.07
2023-03-11T14:11:02.165Z,44.99
2023-03-11T14:13:32.239Z,45.16
2023-03-11T14:16:10.031Z,46.17
2023-03-11T14:18:40.814Z,44.90
2023-03-11T14:21:15.264Z,45.76
2023-03-11T14:23:46.210Z,45.60
2023-03-11T14:26:16.934Z,45.39
2023-03-11T14:28:47.982Z,44.91
2023-03-11T14:31:30.607Z,44.97
2023-03-11T14:34:04.530Z,44.97
2023-03-11T14:36:42.513Z,45.54
2023-03-11T14:39:31.556Z,45.25
2023-03-11T14:42:08.662Z,46.34
2023-03-11T14:44:41.627Z,46.52
2023-03-11T14:47:21.596Z,45.68
2023-03-11T14:49:54.337Z,46.14
2023-03-11T14:52:32.411Z,46.25
2023-03-11T14:55:05.692Z,47.24
2023-03-11T14:57:39.394Z,47.04
2023-03-11T15:00:12.182Z,48.03
2023-03-11T15:02:56.982Z,48.23
2023-03-11T15:05:36.317Z,48.20
2023-03-11T15:08:07.780Z,47.89
2023-03-11T15:10:37.306Z,48.75
2023-03-11T15:13:16.229Z,48.61
2023-03-11T15:15:57.424Z,48.89
2023-03-11T15:18:32.014Z,48.78
2023-03-11T15:21:08.782Z,49.06
2023-03-11T15:23:37.717Z,50.06
2023-03-11T15:26:07.205Z,49.77
2023-03-11T15:28:39.211Z,50.01
2023-03-11T15:31:32.457Z,50.92
2023-03-11T15:34:25.296Z,50.89
2023-03-11T15:37:03.206Z,50.41
2023-03-11T15:39:46.690Z,51.07
2023-03-11T15:42:26.578Z,50.65
2023-03-11T15:45:05.195Z,51.17
2023-03-11T15:47:35.991Z,51.40
2023-03-11T15:50:24.016Z,51.41
2023-03-11T15:52:55.069Z,51.15
2023-03-11T15:55:27.298Z,52.19
2023-03-11T15:58:01.615Z,52.11
2023-03-11T16:00:30.583Z,52.46
2023-03-11T16:02:58.966Z,53.75
2023-03-11T16:05:29.956Z,54.16
2023-03-11T16:07:58.334Z,53.98
2023-03-11T16:10:32.336Z,53.87
2023-03-11T16:13:00.529Z,54.09
2023-03-11T16:15:31.352Z,53.75
2023-03-11T16:18:01.515Z,53.21
2023-03-11T16:20:35.382Z,53.39
2023-03-11T16:23:04.232Z,53.75
2023-03-11T16:25:34.966Z,53.32
2023-03-11T16:28:06.072Z,53.42
2023-03-11T16:30:54.162Z,53.29
2023-03-11T16:33:22.586Z,53.66
2023-03-11T16:35:52.381Z,53.66
2023-03-11T16:38:23.080Z,54.04
2023-03-11T16:40:57.968Z,55.00
2023-03-11T16:43:27.099Z,55.28
2023-03-11T16:45:55.913Z,56.85
2023-03-11T16:48:26.330Z,55.99
2023-03-11T16:50:55.748Z,56.12
2023-03-11T16:53:25.335Z,56.84
2023-03-11T16:55:56.230Z,56.31
2023-03-11T16:58:26.733Z,56.38
2023-03-11T17:00:55.531Z,56.74
2023-03-11T17:03:25.957Z,57.18
2023-03-11T17:06:01.816Z,57.17
2023-03-11T17:08:30.072Z,58.31
2023-03-11T17:11:00.731Z,58.08
2023-03-11T17:13:28.952Z,59.10
2023-03-11T17:16:00.903Z,58.42
2023-03-11T17:18:29.417Z,59.11
2023-03-11T17:20:57.808Z,60.59
2023-03-11T17:23:27.386Z,61.14
2023-03-11T17:25:55.760Z,61.13
2023-03-11T17:28:23.942Z,62.33
2023-03-11T17:30:52.305Z,62.21
2023-03-11T17:33:22.858Z,62.59
2023-03-11T17:35:51.824Z,63.16
2023-03-11T17:41:48.161Z,64.09
2023-03-11T17:44:19.002Z,63.87
2023-03-11T17:46:47.354Z,64.63
2023-03-11T17:49:16.853Z,63.83
2023-03-11T17:51:47.367Z,63.63
2023-03-11T17:54:15.558Z,65.12
2023-03-11T17:56:44.227Z,65.59
2023-03-11T17:59:17.964Z,65.75
2023-03-11T18:01:46.359Z,66.66
2023-03-11T18:04:16.876Z,67.17
2023-03-11T18:06:47.605Z,67.52
2023-03-11T18:09:17.004Z,67.33
2023-03-11T18:11:48.549Z,68.18
2023-03-11T18:14:18.118Z,68.90
2023-03-11T18:16:47.082Z,68.82
2023-03-11T18:19:15.398Z,69.56
2023-03-11T18:21:44.708Z,67.91
2023-03-11T18:24:13.051Z,66.92
2023-03-11T18:26:41.360Z,68.79
2023-03-11T18:29:09.585Z,67.70
2023-03-11T18:31:40.974Z,67.68
2023-03-11T18:34:13.638Z,68.41
2023-03-11T18:36:44.600Z,68.58
2023-03-11T18:39:13.778Z,68.85
2023-03-11T18:41:42.891Z,69.46
2023-03-11T18:44:13.179Z,69.86
2023-03-11T18:46:43.344Z,72.34
2023-03-11T18:49:15.041Z,72.09
2023-03-11T18:51:43.640Z,71.37
2023-03-11T18:54:13.902Z,74.17
2023-03-11T18:56:47.908Z,72.45
2023-03-11T18:59:16.192Z,72.14
2023-03-11T19:01:50.698Z,73.23
2023-03-11T19:04:19.062Z,72.86
2023-03-11T19:06:48.321Z,73.21
2023-03-11T19:09:19.560Z,73.62
2023-03-11T19:11:48.129Z,74.63
2023-03-11T19:14:16.715Z,74.65
2023-03-11T19:16:51.268Z,75.93
2023-03-11T19:19:22.083Z,76.37
2023-03-11T19:21:52.898Z,77.70
2023-03-11T19:24:21.480Z,78.14
2023-03-11T19:26:52.470Z,79.72
2023-03-11T19:29:23.844Z,79.86
2023-03-11T19:31:53.650Z,79.64
2023-03-11T19:34:22.496Z,80.07
2023-03-11T19:36:51.088Z,80.34
2023-03-11T19:39:22.223Z,81.24
2023-03-11T19:41:52.923Z,82.15
2023-03-11T19:44:23.614Z,83.39
2023-03-11T19:46:53.486Z,84.32
2023-03-11T19:49:22.069Z,85.00
2023-03-11T19:51:51.757Z,86.18
2023-03-11T19:54:20.884Z,86.24
2023-03-11T19:56:51.636Z,87.18
2023-03-11T19:59:38.509Z,87.57
2023-03-11T20:02:14.034Z,88.19
2023-03-11T20:04:43.341Z,89.57
2023-03-11T20:07:12.122Z,90.36
2023-03-11T20:09:42.707Z,90.67
2023-03-11T20:12:13.706Z,91.94
2023-03-11T20:14:42.241Z,92.58
2023-03-11T20:17:10.666Z,94.12
2023-03-11T20:19:42.674Z,94.89
2023-03-11T20:22:10.891Z,96.44
2023-03-11T20:24:41.483Z,96.40
2023-03-11T20:27:09.766Z,96.55
2023-03-11T20:29:38.049Z,96.46
2023-03-11T20:32:06.740Z,96.43
2023-03-11T20:34:35.320Z,96.23
2023-03-11T20:37:32.070Z,98.06
2023-03-11T20:40:00.545Z,97.61
2023-03-11T20:42:28.731Z,98.40
2023-03-11T20:44:56.960Z,99.44
2023-03-11T20:47:25.449Z,99.13
2023-03-11T20:49:53.902Z,99.13
2023-03-11T20:52:24.590Z,98.58
2023-03-11T20:54:54.303Z,98.71
2023-03-11T20:57:25.445Z,98.47
2023-03-11T20:59:53.907Z,97.40
2023-03-11T21:02:24.549Z,98.46
2023-03-11T21:04:57.592Z,99.39
2023-03-11T21:07:28.091Z,99.66
2023-03-11T21:09:58.081Z,100.00
2023-03-11T21:12:31.136Z,100.00
2023-03-11T21:15:02.232Z,100.00
2023-03-11T21:17:34.139Z,100.00
2023-03-11T21:20:02.536Z,100.00
2023-03-11T21:22:31.400Z,100.00
2023-03-11T21:25:01.130Z,100.00
2023-03-11T21:27:32.364Z,100.00
2023-03-11T21:30:03.799Z,100.00
2023-03-11T21:32:32.750Z,100.00
2023-03-11T21:35:02.302Z,100.00
2023-03-11T21:37:30.867Z,100.00
2023-03-11T21:40:03.803Z,100.00
2023-03-11T21:42:32.304Z,100.00
2023-03-11T21:45:01.120Z,100.00
2023-03-11T21:47:29.480Z,100.00
2023-03-11T21:49:57.772Z,100.00
2023-03-11T21:52:26.693Z,100.00
2023-03-11T21:54:56.556Z,100.00
2023-03-11T21:57:26.326Z,100.00
2023-03-11T21:59:54.650Z,100.00
2023-03-11T22:02:25.352Z,100.00
2023-03-11T22:04:53.658Z,100.00
2023-03-11T22:07:22.269Z,100.00
2023-03-11T22:09:53.779Z,100.00
2023-03-11T22:12:22.229Z,100.00
2023-03-11T22:14:52.041Z,100.00
2023-03-11T22:17:23.069Z,100.00
2023-03-11T22:19:51.753Z,100.00
2023-03-11T22:22:21.846Z,100.00
2023-03-11T22:24:50.740Z,100.00
2023-03-11T22:27:19.360Z,100.00
2023-03-11T22:29:47.653Z,100.00
2023-03-11T22:32:17.267Z,100.00
2023-03-11T22:34:45.424Z,100.00
2023-03-11T22:37:13.618Z,100.00
2023-03-11T22:39:44.613Z,100.00
2023-03-11T22:42:12.926Z,100.00
2023-03-11T22:44:41.360Z,100.00
2023-03-11T22:47:09.525Z,100.00
2023-03-11T22:49:39.662Z,100.00
2023-03-11T22:52:07.860Z,100.00
2023-03-11T22:54:38.129Z,100.00
2023-03-11T22:57:06.806Z,100.00
2023-03-11T22:59:37.315Z,100.00
2023-03-11T23:02:05.486Z,100.00
2023-03-11T23:04:35.309Z,100.00
2023-03-11T23:07:05.371Z,100.00
2023-03-11T23:09:35.053Z,100.00
2023-03-11T23:12:03.948Z,100.00
2023-03-11T23:14:44.229Z,100.00
2023-03-11T23:17:13.491Z,100.00
2023-03-11T23:19:41.866Z,100.00
2023-03-11T23:22:11.364Z,100.00
2023-03-11T23:24:41.952Z,100.00
2023-03-11T23:27:10.072Z,100.00
2023-03-11T23:29:40.883Z,100.00
2023-03-11T23:32:09.276Z,100.00
2023-03-11T23:34:37.717Z,100.00
2023-03-11T23:37:06.538Z,100.00
2023-03-11T23:39:36.552Z,100.00
2023-03-11T23:42:18.612Z,100.00
2023-03-11T23:44:55.260Z,100.00
2023-03-11T23:47:23.370Z,100.00
2023-03-11T23:49:53.857Z,100.00
2023-03-11T23:52:22.004Z,100.00
2023-03-11T23:54:52.099Z,100.00
2023-03-11T23:57:20.315Z,100.00
2023-03-11T23:59:49.012Z,100.00
